sensor_id;sensor_type;location;lat;lon;timestamp;P1;durP1;ratioP1;P2;durP2;ratioP2
823;SDS011;373;49.342;8.146;2023-04-30T00:01:25;9.68;;;8.88;;
823;SDS011;373;49.342;8.146;2023-04-30T00:03:52;9.30;;;8.50;;
823;SDS011;373;49.342;8.146;2023-04-30T00:06:19;9.05;;;7.95;;
823;SDS011;373;49.342;8.146;2023-04-30T00:08:46;8.93;;;8.13;;
823;SDS011;373;49.342;8.146;2023-04-30T00:11:14;9.60;;;8.70;;
823;SDS011;373;49.342;8.146;2023-04-30T00:13:41;9.45;;;8.55;;
823;SDS011;373;49.342;8.146;2023-04-30T00:16:08;9.18;;;8.40;;
823;SDS011;373;49.342;8.146;2023-04-30T00:18:36;9.25;;;8.25;;
823;SDS011;373;49.342;8.146;2023-04-30T00:21:03;8.82;;;8.02;;
823;SDS011;373;49.342;8.146;2023-04-30T00:23:30;9.55;;;8.63;;
823;SDS011;373;49.342;8.146;2023-04-30T00:25:57;9.68;;;8.77;;
823;SDS011;373;49.342;8.146;2023-04-30T00:28:26;10.20;;;9.30;;
823;SDS011;373;49.342;8.146;2023-04-30T00:30:53;9.98;;;9.13;;
823;SDS011;373;49.342;8.146;2023-04-30T00:33:20;9.48;;;8.52;;
823;SDS011;373;49.342;8.146;2023-04-30T00:35:47;9.77;;;8.95;;
823;SDS011;373;49.342;8.146;2023-04-30T00:38:14;8.57;;;7.78;;
823;SDS011;373;49.342;8.146;2023-04-30T00:40:41;8.98;;;8.27;;
823;SDS011;373;49.342;8.146;2023-04-30T00:43:10;9.75;;;8.85;;
823;SDS011;373;49.342;8.146;2023-04-30T00:45:38;10.45;;;8.80;;
823;SDS011;373;49.342;8.146;2023-04-30T00:48:05;10.00;;;8.80;;
823;SDS011;373;49.342;8.146;2023-04-30T00:50:34;9.10;;;8.20;;
823;SDS011;373;49.342;8.146;2023-04-30T00:53:02;8.80;;;7.97;;
823;SDS011;373;49.342;8.146;2023-04-30T00:55:30;9.10;;;8.35;;
823;SDS011;373;49.342;8.146;2023-04-30T00:57:57;8.43;;;7.63;;
823;SDS011;373;49.342;8.146;2023-04-30T01:00:25;10.05;;;9.07;;
823;SDS011;373;49.342;8.146;2023-04-30T01:02:55;10.13;;;9.23;;
823;SDS011;373;49.342;8.146;2023-04-30T01:05:22;9.90;;;9.00;;
823;SDS011;373;49.342;8.146;2023-04-30T01:07:50;9.85;;;8.95;;
823;SDS011;373;49.342;8.146;2023-04-30T01:10:19;9.82;;;8.93;;
823;SDS011;373;49.342;8.146;2023-04-30T01:12:49;10.10;;;9.20;;
823;SDS011;373;49.342;8.146;2023-04-30T01:15:22;9.20;;;8.40;;
823;SDS011;373;49.342;8.146;2023-04-30T01:18:02;9.73;;;8.68;;
823;SDS011;373;49.342;8.146;2023-04-30T01:20:33;10.90;;;9.90;;
823;SDS011;373;49.342;8.146;2023-04-30T01:23:06;10.48;;;9.48;;
823;SDS011;373;49.342;8.146;2023-04-30T01:25:50;10.50;;;9.45;;
823;SDS011;373;49.342;8.146;2023-04-30T01:28:25;11.45;;;10.45;;
823;SDS011;373;49.342;8.146;2023-04-30T01:30:55;11.25;;;10.23;;
823;SDS011;373;49.342;8.146;2023-04-30T01:33:22;12.30;;;11.07;;
823;SDS011;373;49.342;8.146;2023-04-30T01:36:09;11.85;;;10.85;;
823;SDS011;373;49.342;8.146;2023-04-30T01:38:56;12.00;;;10.90;;
823;SDS011;373;49.342;8.146;2023-04-30T01:41:36;12.23;;;11.02;;
823;SDS011;373;49.342;8.146;2023-04-30T01:44:22;12.00;;;10.90;;
823;SDS011;373;49.342;8.146;2023-04-30T01:47:01;12.25;;;11.25;;
823;SDS011;373;49.342;8.146;2023-04-30T01:49:36;12.40;;;10.85;;
823;SDS011;373;49.342;8.146;2023-04-30T01:52:14;13.02;;;11.80;;
823;SDS011;373;49.342;8.146;2023-04-30T01:54:48;12.82;;;11.63;;
823;SDS011;373;49.342;8.146;2023-04-30T01:57:24;12.70;;;11.55;;
823;SDS011;373;49.342;8.146;2023-04-30T01:59:55;11.90;;;10.90;;
823;SDS011;373;49.342;8.146;2023-04-30T02:02:22;15.43;;;13.13;;
823;SDS011;373;49.342;8.146;2023-04-30T02:04:49;13.70;;;12.40;;
823;SDS011;373;49.342;8.146;2023-04-30T02:07:19;13.38;;;12.07;;
823;SDS011;373;49.342;8.146;2023-04-30T02:10:02;11.57;;;10.52;;
823;SDS011;373;49.342;8.146;2023-04-30T02:12:30;14.27;;;12.77;;
823;SDS011;373;49.342;8.146;2023-04-30T02:14:58;13.45;;;12.00;;
823;SDS011;373;49.342;8.146;2023-04-30T02:17:25;13.55;;;12.32;;
823;SDS011;373;49.342;8.146;2023-04-30T02:19:53;13.85;;;12.40;;
823;SDS011;373;49.342;8.146;2023-04-30T02:22:20;12.52;;;11.30;;
823;SDS011;373;49.342;8.146;2023-04-30T02:24:47;14.55;;;13.25;;
823;SDS011;373;49.342;8.146;2023-04-30T02:27:18;15.07;;;13.60;;
823;SDS011;373;49.342;8.146;2023-04-30T02:29:46;13.77;;;12.48;;
823;SDS011;373;49.342;8.146;2023-04-30T02:32:14;14.05;;;12.73;;
823;SDS011;373;49.342;8.146;2023-04-30T02:34:41;14.73;;;13.23;;
823;SDS011;373;49.342;8.146;2023-04-30T02:37:09;14.45;;;13.10;;
823;SDS011;373;49.342;8.146;2023-04-30T02:39:36;14.18;;;12.85;;
823;SDS011;373;49.342;8.146;2023-04-30T02:42:03;13.02;;;11.70;;
823;SDS011;373;49.342;8.146;2023-04-30T02:44:31;13.20;;;11.95;;
823;SDS011;373;49.342;8.146;2023-04-30T02:46:58;13.32;;;12.02;;
823;SDS011;373;49.342;8.146;2023-04-30T02:49:26;12.70;;;11.55;;
823;SDS011;373;49.342;8.146;2023-04-30T02:51:54;12.10;;;11.00;;
823;SDS011;373;49.342;8.146;2023-04-30T02:54:21;12.52;;;11.43;;
823;SDS011;373;49.342;8.146;2023-04-30T02:56:48;13.50;;;12.30;;
823;SDS011;373;49.342;8.146;2023-04-30T02:59:15;13.43;;;12.30;;
823;SDS011;373;49.342;8.146;2023-04-30T03:01:42;13.77;;;12.35;;
823;SDS011;373;49.342;8.146;2023-04-30T03:04:09;14.10;;;12.80;;
823;SDS011;373;49.342;8.146;2023-04-30T03:06:37;14.02;;;12.73;;
823;SDS011;373;49.342;8.146;2023-04-30T03:09:05;13.35;;;12.10;;
823;SDS011;373;49.342;8.146;2023-04-30T03:11:32;13.07;;;11.88;;
823;SDS011;373;49.342;8.146;2023-04-30T03:14:01;13.30;;;12.00;;
823;SDS011;373;49.342;8.146;2023-04-30T03:16:29;13.55;;;12.20;;
823;SDS011;373;49.342;8.146;2023-04-30T03:18:56;12.57;;;11.48;;
823;SDS011;373;49.342;8.146;2023-04-30T03:21:23;13.77;;;12.60;;
823;SDS011;373;49.342;8.146;2023-04-30T03:23:52;14.32;;;12.93;;
823;SDS011;373;49.342;8.146;2023-04-30T03:26:19;12.55;;;11.35;;
823;SDS011;373;49.342;8.146;2023-04-30T03:28:46;12.63;;;11.32;;
823;SDS011;373;49.342;8.146;2023-04-30T03:31:14;13.13;;;11.93;;
823;SDS011;373;49.342;8.146;2023-04-30T03:33:41;12.55;;;11.45;;
823;SDS011;373;49.342;8.146;2023-04-30T03:36:08;13.07;;;11.90;;
823;SDS011;373;49.342;8.146;2023-04-30T03:38:35;12.48;;;11.27;;
823;SDS011;373;49.342;8.146;2023-04-30T03:41:03;13.05;;;11.88;;
823;SDS011;373;49.342;8.146;2023-04-30T03:43:31;12.95;;;11.70;;
823;SDS011;373;49.342;8.146;2023-04-30T03:45:58;13.93;;;12.73;;
823;SDS011;373;49.342;8.146;2023-04-30T03:48:25;13.52;;;12.30;;
823;SDS011;373;49.342;8.146;2023-04-30T03:50:52;13.80;;;12.50;;
823;SDS011;373;49.342;8.146;2023-04-30T03:53:19;13.68;;;12.48;;
823;SDS011;373;49.342;8.146;2023-04-30T03:55:47;13.05;;;11.82;;
823;SDS011;373;49.342;8.146;2023-04-30T03:58:16;13.30;;;12.07;;
823;SDS011;373;49.342;8.146;2023-04-30T04:00:43;14.25;;;12.85;;
823;SDS011;373;49.342;8.146;2023-04-30T04:03:12;13.73;;;12.43;;
823;SDS011;373;49.342;8.146;2023-04-30T04:05:40;12.20;;;11.13;;
823;SDS011;373;49.342;8.146;2023-04-30T04:08:07;13.25;;;12.13;;
823;SDS011;373;49.342;8.146;2023-04-30T04:10:34;14.80;;;13.40;;
823;SDS011;373;49.342;8.146;2023-04-30T04:13:02;13.98;;;12.68;;
823;SDS011;373;49.342;8.146;2023-04-30T04:15:30;13.60;;;12.40;;
823;SDS011;373;49.342;8.146;2023-04-30T04:17:57;14.73;;;13.40;;
823;SDS011;373;49.342;8.146;2023-04-30T04:20:25;14.80;;;13.13;;
823;SDS011;373;49.342;8.146;2023-04-30T04:22:54;14.57;;;13.13;;
823;SDS011;373;49.342;8.146;2023-04-30T04:25:21;15.10;;;13.63;;
823;SDS011;373;49.342;8.146;2023-04-30T04:27:49;15.50;;;14.10;;
823;SDS011;373;49.342;8.146;2023-04-30T04:30:17;14.18;;;12.88;;
823;SDS011;373;49.342;8.146;2023-04-30T04:32:47;15.00;;;13.70;;
823;SDS011;373;49.342;8.146;2023-04-30T04:35:18;14.15;;;12.80;;
823;SDS011;373;49.342;8.146;2023-04-30T04:37:45;14.40;;;13.15;;
823;SDS011;373;49.342;8.146;2023-04-30T04:40:12;14.07;;;12.68;;
823;SDS011;373;49.342;8.146;2023-04-30T04:42:39;14.38;;;13.07;;
823;SDS011;373;49.342;8.146;2023-04-30T04:45:07;15.07;;;13.55;;
823;SDS011;373;49.342;8.146;2023-04-30T04:47:35;15.57;;;14.02;;
823;SDS011;373;49.342;8.146;2023-04-30T04:50:07;13.77;;;12.57;;
823;SDS011;373;49.342;8.146;2023-04-30T04:52:35;13.85;;;12.65;;
823;SDS011;373;49.342;8.146;2023-04-30T04:55:02;14.20;;;12.82;;
823;SDS011;373;49.342;8.146;2023-04-30T04:57:35;15.55;;;14.18;;
823;SDS011;373;49.342;8.146;2023-04-30T05:00:02;14.18;;;12.88;;
823;SDS011;373;49.342;8.146;2023-04-30T05:02:31;15.25;;;13.13;;
823;SDS011;373;49.342;8.146;2023-04-30T05:04:58;13.32;;;12.20;;
823;SDS011;373;49.342;8.146;2023-04-30T05:07:28;14.38;;;12.98;;
823;SDS011;373;49.342;8.146;2023-04-30T05:09:55;14.00;;;12.70;;
823;SDS011;373;49.342;8.146;2023-04-30T05:12:22;13.90;;;12.60;;
823;SDS011;373;49.342;8.146;2023-04-30T05:14:49;14.23;;;12.90;;
823;SDS011;373;49.342;8.146;2023-04-30T05:17:16;14.00;;;12.60;;
823;SDS011;373;49.342;8.146;2023-04-30T05:19:43;15.52;;;12.57;;
823;SDS011;373;49.342;8.146;2023-04-30T05:22:12;13.85;;;12.55;;
823;SDS011;373;49.342;8.146;2023-04-30T05:24:40;13.90;;;12.70;;
823;SDS011;373;49.342;8.146;2023-04-30T05:27:08;14.52;;;13.32;;
823;SDS011;373;49.342;8.146;2023-04-30T05:29:35;13.65;;;12.35;;
823;SDS011;373;49.342;8.146;2023-04-30T05:32:02;13.18;;;11.98;;
823;SDS011;373;49.342;8.146;2023-04-30T05:34:30;14.82;;;13.52;;
823;SDS011;373;49.342;8.146;2023-04-30T05:36:57;14.82;;;13.43;;
823;SDS011;373;49.342;8.146;2023-04-30T05:39:28;14.70;;;13.25;;
823;SDS011;373;49.342;8.146;2023-04-30T05:41:56;13.77;;;12.48;;
823;SDS011;373;49.342;8.146;2023-04-30T05:44:23;13.60;;;12.48;;
823;SDS011;373;49.342;8.146;2023-04-30T05:46:51;13.63;;;12.43;;
823;SDS011;373;49.342;8.146;2023-04-30T05:49:18;13.30;;;12.10;;
823;SDS011;373;49.342;8.146;2023-04-30T05:51:45;13.63;;;12.32;;
823;SDS011;373;49.342;8.146;2023-04-30T05:54:12;13.55;;;12.25;;
823;SDS011;373;49.342;8.146;2023-04-30T05:56:39;13.13;;;11.95;;
823;SDS011;373;49.342;8.146;2023-04-30T05:59:07;12.48;;;11.43;;
823;SDS011;373;49.342;8.146;2023-04-30T06:01:35;13.90;;;12.50;;
823;SDS011;373;49.342;8.146;2023-04-30T06:04:02;13.95;;;12.63;;
823;SDS011;373;49.342;8.146;2023-04-30T06:06:29;12.68;;;11.48;;
823;SDS011;373;49.342;8.146;2023-04-30T06:08:56;14.63;;;13.23;;
823;SDS011;373;49.342;8.146;2023-04-30T06:11:24;13.20;;;11.95;;
823;SDS011;373;49.342;8.146;2023-04-30T06:13:51;13.70;;;12.40;;
823;SDS011;373;49.342;8.146;2023-04-30T06:16:20;13.45;;;12.23;;
823;SDS011;373;49.342;8.146;2023-04-30T06:18:47;12.35;;;11.30;;
823;SDS011;373;49.342;8.146;2023-04-30T06:21:14;12.60;;;11.55;;
823;SDS011;373;49.342;8.146;2023-04-30T06:23:41;13.35;;;12.15;;
823;SDS011;373;49.342;8.146;2023-04-30T06:26:08;12.85;;;11.60;;
823;SDS011;373;49.342;8.146;2023-04-30T06:28:35;12.70;;;11.70;;
823;SDS011;373;49.342;8.146;2023-04-30T06:31:02;13.38;;;12.18;;
823;SDS011;373;49.342;8.146;2023-04-30T06:33:30;13.13;;;11.40;;
823;SDS011;373;49.342;8.146;2023-04-30T06:35:57;13.30;;;12.05;;
823;SDS011;373;49.342;8.146;2023-04-30T06:38:24;13.75;;;12.45;;
823;SDS011;373;49.342;8.146;2023-04-30T06:40:51;13.02;;;11.82;;
823;SDS011;373;49.342;8.146;2023-04-30T06:43:18;13.55;;;12.15;;
823;SDS011;373;49.342;8.146;2023-04-30T06:45:46;12.52;;;11.32;;
823;SDS011;373;49.342;8.146;2023-04-30T06:48:13;12.05;;;11.05;;
823;SDS011;373;49.342;8.146;2023-04-30T06:50:41;12.05;;;10.98;;
823;SDS011;373;49.342;8.146;2023-04-30T06:53:09;12.57;;;11.45;;
823;SDS011;373;49.342;8.146;2023-04-30T06:55:36;11.90;;;10.90;;
823;SDS011;373;49.342;8.146;2023-04-30T06:58:03;11.77;;;10.68;;
823;SDS011;373;49.342;8.146;2023-04-30T07:00:31;12.00;;;10.93;;
823;SDS011;373;49.342;8.146;2023-04-30T07:02:58;13.45;;;11.70;;
823;SDS011;373;49.342;8.146;2023-04-30T07:05:27;10.60;;;9.60;;
823;SDS011;373;49.342;8.146;2023-04-30T07:07:56;11.77;;;10.68;;
823;SDS011;373;49.342;8.146;2023-04-30T07:10:23;11.25;;;10.15;;
823;SDS011;373;49.342;8.146;2023-04-30T07:12:51;12.15;;;10.95;;
823;SDS011;373;49.342;8.146;2023-04-30T07:15:18;11.30;;;10.40;;
823;SDS011;373;49.342;8.146;2023-04-30T07:17:45;11.13;;;10.18;;
823;SDS011;373;49.342;8.146;2023-04-30T07:20:12;10.57;;;9.57;;
823;SDS011;373;49.342;8.146;2023-04-30T07:22:40;10.43;;;9.38;;
823;SDS011;373;49.342;8.146;2023-04-30T07:25:10;10.00;;;9.20;;
823;SDS011;373;49.342;8.146;2023-04-30T07:27:37;10.70;;;9.68;;
823;SDS011;373;49.342;8.146;2023-04-30T07:30:04;9.40;;;8.60;;
823;SDS011;373;49.342;8.146;2023-04-30T07:32:34;10.27;;;9.27;;
823;SDS011;373;49.342;8.146;2023-04-30T07:35:02;10.40;;;9.40;;
823;SDS011;373;49.342;8.146;2023-04-30T07:37:32;10.73;;;9.75;;
823;SDS011;373;49.342;8.146;2023-04-30T07:39:59;9.65;;;8.85;;
823;SDS011;373;49.342;8.146;2023-04-30T07:42:28;9.70;;;8.77;;
823;SDS011;373;49.342;8.146;2023-04-30T07:44:55;9.55;;;8.73;;
823;SDS011;373;49.342;8.146;2023-04-30T07:47:22;10.27;;;9.35;;
823;SDS011;373;49.342;8.146;2023-04-30T07:49:50;10.38;;;9.40;;
823;SDS011;373;49.342;8.146;2023-04-30T07:52:17;9.55;;;8.55;;
823;SDS011;373;49.342;8.146;2023-04-30T07:54:44;8.30;;;7.40;;
823;SDS011;373;49.342;8.146;2023-04-30T07:57:11;9.00;;;8.23;;
823;SDS011;373;49.342;8.146;2023-04-30T07:59:39;8.00;;;7.30;;
823;SDS011;373;49.342;8.146;2023-04-30T08:02:07;8.07;;;7.38;;
823;SDS011;373;49.342;8.146;2023-04-30T08:04:34;9.40;;;8.50;;
823;SDS011;373;49.342;8.146;2023-04-30T08:07:01;8.88;;;8.07;;
823;SDS011;373;49.342;8.146;2023-04-30T08:09:29;9.40;;;8.60;;
823;SDS011;373;49.342;8.146;2023-04-30T08:11:56;9.30;;;8.43;;
823;SDS011;373;49.342;8.146;2023-04-30T08:14:23;10.68;;;8.50;;
823;SDS011;373;49.342;8.146;2023-04-30T08:16:52;9.73;;;8.80;;
823;SDS011;373;49.342;8.146;2023-04-30T08:19:20;9.23;;;8.40;;
823;SDS011;373;49.342;8.146;2023-04-30T08:21:47;8.70;;;8.00;;
823;SDS011;373;49.342;8.146;2023-04-30T08:24:14;9.70;;;8.27;;
823;SDS011;373;49.342;8.146;2023-04-30T08:26:41;9.98;;;9.07;;
823;SDS011;373;49.342;8.146;2023-04-30T08:29:08;9.82;;;8.90;;
823;SDS011;373;49.342;8.146;2023-04-30T08:31:35;7.82;;;7.13;;
823;SDS011;373;49.342;8.146;2023-04-30T08:34:04;7.25;;;6.63;;
823;SDS011;373;49.342;8.146;2023-04-30T08:36:31;6.13;;;5.63;;
823;SDS011;373;49.342;8.146;2023-04-30T08:38:58;6.40;;;5.90;;
823;SDS011;373;49.342;8.146;2023-04-30T08:41:26;7.05;;;5.85;;
823;SDS011;373;49.342;8.146;2023-04-30T08:43:58;5.85;;;5.30;;
823;SDS011;373;49.342;8.146;2023-04-30T08:46:28;4.53;;;4.13;;
823;SDS011;373;49.342;8.146;2023-04-30T08:48:57;4.97;;;4.45;;
823;SDS011;373;49.342;8.146;2023-04-30T08:51:25;7.47;;;6.78;;
823;SDS011;373;49.342;8.146;2023-04-30T08:53:55;7.25;;;6.53;;
823;SDS011;373;49.342;8.146;2023-04-30T08:56:23;6.40;;;5.90;;
823;SDS011;373;49.342;8.146;2023-04-30T08:58:50;5.40;;;4.90;;
823;SDS011;373;49.342;8.146;2023-04-30T09:01:17;6.88;;;5.07;;
823;SDS011;373;49.342;8.146;2023-04-30T09:03:46;4.72;;;4.32;;
823;SDS011;373;49.342;8.146;2023-04-30T09:06:16;4.78;;;3.85;;
823;SDS011;373;49.342;8.146;2023-04-30T09:08:45;4.65;;;4.00;;
823;SDS011;373;49.342;8.146;2023-04-30T09:11:20;4.53;;;4.22;;
823;SDS011;373;49.342;8.146;2023-04-30T09:13:48;3.30;;;3.05;;
823;SDS011;373;49.342;8.146;2023-04-30T09:16:19;4.25;;;2.90;;
823;SDS011;373;49.342;8.146;2023-04-30T09:18:47;3.53;;;2.80;;
823;SDS011;373;49.342;8.146;2023-04-30T09:21:14;2.30;;;2.10;;
823;SDS011;373;49.342;8.146;2023-04-30T09:23:55;4.50;;;2.88;;
823;SDS011;373;49.342;8.146;2023-04-30T09:26:26;3.25;;;2.95;;
823;SDS011;373;49.342;8.146;2023-04-30T09:28:56;2.92;;;2.42;;
823;SDS011;373;49.342;8.146;2023-04-30T09:31:24;3.25;;;2.95;;
823;SDS011;373;49.342;8.146;2023-04-30T09:33:52;2.20;;;2.05;;
823;SDS011;373;49.342;8.146;2023-04-30T09:36:19;3.08;;;2.83;;
823;SDS011;373;49.342;8.146;2023-04-30T09:38:46;3.22;;;2.83;;
823;SDS011;373;49.342;8.146;2023-04-30T09:41:21;3.10;;;2.88;;
823;SDS011;373;49.342;8.146;2023-04-30T09:43:50;2.95;;;2.38;;
823;SDS011;373;49.342;8.146;2023-04-30T09:46:18;3.88;;;2.78;;
823;SDS011;373;49.342;8.146;2023-04-30T09:48:46;3.08;;;2.78;;
823;SDS011;373;49.342;8.146;2023-04-30T09:51:22;3.17;;;2.53;;
823;SDS011;373;49.342;8.146;2023-04-30T09:53:50;3.28;;;2.63;;
823;SDS011;373;49.342;8.146;2023-04-30T09:56:18;3.08;;;2.65;;
823;SDS011;373;49.342;8.146;2023-04-30T09:58:49;3.25;;;2.95;;
823;SDS011;373;49.342;8.146;2023-04-30T10:01:18;3.30;;;3.00;;
823;SDS011;373;49.342;8.146;2023-04-30T10:03:46;3.78;;;2.92;;
823;SDS011;373;49.342;8.146;2023-04-30T10:06:14;4.43;;;3.00;;
823;SDS011;373;49.342;8.146;2023-04-30T10:08:43;3.50;;;3.20;;
823;SDS011;373;49.342;8.146;2023-04-30T10:11:18;4.00;;;2.83;;
823;SDS011;373;49.342;8.146;2023-04-30T10:13:50;2.95;;;2.67;;
823;SDS011;373;49.342;8.146;2023-04-30T10:16:23;3.75;;;3.42;;
823;SDS011;373;49.342;8.146;2023-04-30T10:18:58;3.13;;;2.88;;
823;SDS011;373;49.342;8.146;2023-04-30T10:21:28;4.97;;;3.58;;
823;SDS011;373;49.342;8.146;2023-04-30T10:23:56;3.63;;;3.28;;
823;SDS011;373;49.342;8.146;2023-04-30T10:26:24;2.90;;;2.70;;
823;SDS011;373;49.342;8.146;2023-04-30T10:28:53;3.65;;;2.88;;
823;SDS011;373;49.342;8.146;2023-04-30T10:31:25;3.33;;;2.70;;
823;SDS011;373;49.342;8.146;2023-04-30T10:34:05;2.83;;;2.22;;
823;SDS011;373;49.342;8.146;2023-04-30T10:36:55;2.92;;;2.58;;
823;SDS011;373;49.342;8.146;2023-04-30T10:39:24;4.50;;;2.35;;
823;SDS011;373;49.342;8.146;2023-04-30T10:41:59;2.92;;;2.63;;
823;SDS011;373;49.342;8.146;2023-04-30T10:44:30;3.03;;;2.63;;
823;SDS011;373;49.342;8.146;2023-04-30T10:46:58;2.85;;;2.00;;
823;SDS011;373;49.342;8.146;2023-04-30T10:49:26;2.30;;;2.10;;
823;SDS011;373;49.342;8.146;2023-04-30T10:51:53;2.10;;;1.90;;
823;SDS011;373;49.342;8.146;2023-04-30T10:54:24;2.97;;;2.17;;
823;SDS011;373;49.342;8.146;2023-04-30T10:56:53;3.38;;;2.35;;
823;SDS011;373;49.342;8.146;2023-04-30T10:59:22;2.53;;;2.03;;
823;SDS011;373;49.342;8.146;2023-04-30T11:01:58;3.17;;;2.22;;
823;SDS011;373;49.342;8.146;2023-04-30T11:04:26;2.70;;;2.30;;
823;SDS011;373;49.342;8.146;2023-04-30T11:06:55;2.67;;;2.20;;
823;SDS011;373;49.342;8.146;2023-04-30T11:09:37;3.55;;;2.13;;
823;SDS011;373;49.342;8.146;2023-04-30T11:12:10;2.38;;;2.20;;
823;SDS011;373;49.342;8.146;2023-04-30T11:14:39;2.45;;;2.17;;
823;SDS011;373;49.342;8.146;2023-04-30T11:17:10;2.35;;;2.25;;
823;SDS011;373;49.342;8.146;2023-04-30T11:19:41;2.53;;;2.25;;
823;SDS011;373;49.342;8.146;2023-04-30T11:22:16;2.55;;;2.25;;
823;SDS011;373;49.342;8.146;2023-04-30T11:24:59;3.38;;;2.40;;
823;SDS011;373;49.342;8.146;2023-04-30T11:27:30;2.45;;;1.92;;
823;SDS011;373;49.342;8.146;2023-04-30T11:29:58;2.38;;;2.17;;
823;SDS011;373;49.342;8.146;2023-04-30T11:32:31;2.35;;;2.15;;
823;SDS011;373;49.342;8.146;2023-04-30T11:35:00;2.58;;;2.08;;
823;SDS011;373;49.342;8.146;2023-04-30T11:37:29;1.90;;;1.70;;
823;SDS011;373;49.342;8.146;2023-04-30T11:39:59;2.38;;;2.17;;
823;SDS011;373;49.342;8.146;2023-04-30T11:42:28;2.55;;;2.00;;
823;SDS011;373;49.342;8.146;2023-04-30T11:45:02;2.53;;;2.30;;
823;SDS011;373;49.342;8.146;2023-04-30T11:50:18;2.40;;;2.10;;
823;SDS011;373;49.342;8.146;2023-04-30T11:52:52;2.80;;;2.03;;
823;SDS011;373;49.342;8.146;2023-04-30T11:55:20;2.45;;;2.25;;
823;SDS011;373;49.342;8.146;2023-04-30T11:57:49;2.33;;;1.90;;
823;SDS011;373;49.342;8.146;2023-04-30T12:00:18;2.65;;;1.90;;
823;SDS011;373;49.342;8.146;2023-04-30T12:02:47;2.22;;;2.03;;
823;SDS011;373;49.342;8.146;2023-04-30T12:05:17;2.17;;;1.98;;
823;SDS011;373;49.342;8.146;2023-04-30T12:07:46;1.80;;;1.70;;
823;SDS011;373;49.342;8.146;2023-04-30T12:10:13;1.90;;;1.80;;
823;SDS011;373;49.342;8.146;2023-04-30T12:12:41;2.05;;;1.95;;
823;SDS011;373;49.342;8.146;2023-04-30T12:15:10;2.35;;;1.73;;
823;SDS011;373;49.342;8.146;2023-04-30T12:17:38;2.80;;;1.98;;
823;SDS011;373;49.342;8.146;2023-04-30T12:20:05;2.45;;;2.05;;
823;SDS011;373;49.342;8.146;2023-04-30T12:22:35;2.08;;;1.88;;
823;SDS011;373;49.342;8.146;2023-04-30T12:25:04;2.42;;;1.85;;
823;SDS011;373;49.342;8.146;2023-04-30T12:27:34;2.72;;;2.28;;
823;SDS011;373;49.342;8.146;2023-04-30T12:30:02;3.90;;;2.28;;
823;SDS011;373;49.342;8.146;2023-04-30T12:32:35;2.13;;;2.03;;
823;SDS011;373;49.342;8.146;2023-04-30T12:35:07;2.50;;;2.30;;
823;SDS011;373;49.342;8.146;2023-04-30T12:37:36;1.70;;;1.60;;
823;SDS011;373;49.342;8.146;2023-04-30T12:40:07;2.20;;;2.00;;
823;SDS011;373;49.342;8.146;2023-04-30T12:42:35;2.25;;;1.88;;
823;SDS011;373;49.342;8.146;2023-04-30T12:45:02;2.45;;;2.25;;
823;SDS011;373;49.342;8.146;2023-04-30T12:47:29;4.18;;;1.95;;
823;SDS011;373;49.342;8.146;2023-04-30T12:49:56;2.22;;;1.83;;
823;SDS011;373;49.342;8.146;2023-04-30T12:52:24;1.95;;;1.80;;
823;SDS011;373;49.342;8.146;2023-04-30T12:54:53;2.17;;;1.80;;
823;SDS011;373;49.342;8.146;2023-04-30T12:57:20;4.82;;;2.08;;
823;SDS011;373;49.342;8.146;2023-04-30T12:59:56;2.47;;;1.80;;
823;SDS011;373;49.342;8.146;2023-04-30T13:02:25;2.08;;;1.88;;
823;SDS011;373;49.342;8.146;2023-04-30T13:04:56;2.17;;;2.00;;
823;SDS011;373;49.342;8.146;2023-04-30T13:07:23;2.08;;;1.88;;
823;SDS011;373;49.342;8.146;2023-04-30T13:09:50;2.58;;;1.70;;
823;SDS011;373;49.342;8.146;2023-04-30T13:12:19;1.70;;;1.60;;
823;SDS011;373;49.342;8.146;2023-04-30T13:14:46;1.80;;;1.70;;
823;SDS011;373;49.342;8.146;2023-04-30T13:17:13;2.78;;;2.08;;
823;SDS011;373;49.342;8.146;2023-04-30T13:19:40;1.83;;;1.73;;
823;SDS011;373;49.342;8.146;2023-04-30T13:22:07;2.60;;;2.00;;
823;SDS011;373;49.342;8.146;2023-04-30T13:24:34;1.83;;;1.52;;
823;SDS011;373;49.342;8.146;2023-04-30T13:27:03;2.05;;;1.88;;
823;SDS011;373;49.342;8.146;2023-04-30T13:29:30;2.53;;;1.95;;
823;SDS011;373;49.342;8.146;2023-04-30T13:31:57;1.90;;;1.80;;
823;SDS011;373;49.342;8.146;2023-04-30T13:34:24;2.10;;;2.00;;
823;SDS011;373;49.342;8.146;2023-04-30T13:36:51;2.60;;;1.60;;
823;SDS011;373;49.342;8.146;2023-04-30T13:39:19;1.80;;;1.70;;
823;SDS011;373;49.342;8.146;2023-04-30T13:41:46;2.00;;;1.80;;
823;SDS011;373;49.342;8.146;2023-04-30T13:44:15;3.10;;;1.73;;
823;SDS011;373;49.342;8.146;2023-04-30T13:46:42;2.13;;;1.98;;
823;SDS011;373;49.342;8.146;2023-04-30T13:49:09;1.95;;;1.80;;
823;SDS011;373;49.342;8.146;2023-04-30T13:51:36;2.72;;;1.70;;
823;SDS011;373;49.342;8.146;2023-04-30T13:54:03;2.05;;;1.85;;
823;SDS011;373;49.342;8.146;2023-04-30T13:56:31;2.60;;;2.00;;
823;SDS011;373;49.342;8.146;2023-04-30T13:58:58;1.92;;;1.80;;
823;SDS011;373;49.342;8.146;2023-04-30T14:01:26;1.52;;;1.42;;
823;SDS011;373;49.342;8.146;2023-04-30T14:03:53;2.25;;;1.92;;
823;SDS011;373;49.342;8.146;2023-04-30T14:06:20;2.92;;;2.13;;
823;SDS011;373;49.342;8.146;2023-04-30T14:08:47;3.10;;;1.95;;
823;SDS011;373;49.342;8.146;2023-04-30T14:11:14;2.47;;;1.63;;
823;SDS011;373;49.342;8.146;2023-04-30T14:13:41;2.35;;;2.15;;
823;SDS011;373;49.342;8.146;2023-04-30T14:16:08;3.15;;;1.42;;
823;SDS011;373;49.342;8.146;2023-04-30T14:18:37;2.13;;;1.92;;
823;SDS011;373;49.342;8.146;2023-04-30T14:21:04;3.22;;;1.83;;
823;SDS011;373;49.342;8.146;2023-04-30T14:23:31;1.98;;;1.70;;
823;SDS011;373;49.342;8.146;2023-04-30T14:25:59;2.47;;;1.70;;
823;SDS011;373;49.342;8.146;2023-04-30T14:28:26;1.67;;;1.58;;
823;SDS011;373;49.342;8.146;2023-04-30T14:30:53;2.88;;;1.80;;
823;SDS011;373;49.342;8.146;2023-04-30T14:33:20;1.73;;;1.63;;
823;SDS011;373;49.342;8.146;2023-04-30T14:35:48;1.92;;;1.60;;
823;SDS011;373;49.342;8.146;2023-04-30T14:38:15;1.55;;;1.45;;
823;SDS011;373;49.342;8.146;2023-04-30T14:40:42;1.90;;;1.60;;
823;SDS011;373;49.342;8.146;2023-04-30T14:43:10;1.90;;;1.73;;
823;SDS011;373;49.342;8.146;2023-04-30T14:45:37;2.47;;;1.65;;
823;SDS011;373;49.342;8.146;2023-04-30T14:48:05;1.63;;;1.52;;
823;SDS011;373;49.342;8.146;2023-04-30T14:50:32;2.28;;;1.50;;
823;SDS011;373;49.342;8.146;2023-04-30T14:53:00;1.92;;;1.50;;
823;SDS011;373;49.342;8.146;2023-04-30T14:55:28;1.85;;;1.75;;
823;SDS011;373;49.342;8.146;2023-04-30T14:57:55;1.98;;;1.65;;
823;SDS011;373;49.342;8.146;2023-04-30T15:00:22;1.88;;;1.77;;
823;SDS011;373;49.342;8.146;2023-04-30T15:02:49;1.85;;;1.67;;
823;SDS011;373;49.342;8.146;2023-04-30T15:05:16;1.70;;;1.60;;
823;SDS011;373;49.342;8.146;2023-04-30T15:07:43;1.73;;;1.63;;
823;SDS011;373;49.342;8.146;2023-04-30T15:10:12;2.35;;;1.70;;
823;SDS011;373;49.342;8.146;2023-04-30T15:12:39;2.05;;;1.95;;
823;SDS011;373;49.342;8.146;2023-04-30T15:15:07;2.28;;;2.08;;
823;SDS011;373;49.342;8.146;2023-04-30T15:17:34;2.42;;;1.80;;
823;SDS011;373;49.342;8.146;2023-04-30T15:20:02;1.80;;;1.58;;
823;SDS011;373;49.342;8.146;2023-04-30T15:22:29;1.92;;;1.73;;
823;SDS011;373;49.342;8.146;2023-04-30T15:24:56;2.58;;;1.50;;
823;SDS011;373;49.342;8.146;2023-04-30T15:27:25;2.03;;;1.83;;
823;SDS011;373;49.342;8.146;2023-04-30T15:29:53;1.88;;;1.60;;
823;SDS011;373;49.342;8.146;2023-04-30T15:32:20;1.50;;;1.40;;
823;SDS011;373;49.342;8.146;2023-04-30T15:34:47;1.85;;;1.60;;
823;SDS011;373;49.342;8.146;2023-04-30T15:37:14;2.85;;;1.58;;
823;SDS011;373;49.342;8.146;2023-04-30T15:39:41;1.63;;;1.27;;
823;SDS011;373;49.342;8.146;2023-04-30T15:42:08;1.95;;;1.15;;
823;SDS011;373;49.342;8.146;2023-04-30T15:44:36;1.17;;;1.08;;